createdAt,value
2022-09-24T00:00:16.826Z,7.20
2022-09-24T00:01:21.330Z,7.82
2022-09-24T00:02:22.989Z,7.13
2022-09-24T00:03:28.139Z,7.22
2022-09-24T00:04:31.343Z,7.32
2022-09-24T00:05:37.089Z,7.07
2022-09-24T00:06:41.881Z,7.03
2022-09-24T00:07:43.406Z,6.80
2022-09-24T00:08:50.147Z,7.22
2022-09-24T00:09:53.049Z,6.55
2022-09-24T00:10:57.037Z,7.22
2022-09-24T00:12:00.953Z,6.60
2022-09-24T00:13:02.473Z,6.97
2022-09-24T00:14:06.868Z,7.45
2022-09-24T00:15:09.343Z,7.15
2022-09-24T00:16:14.760Z,6.95
2022-09-24T00:17:16.601Z,7.15
2022-09-24T00:18:21.842Z,7.60
2022-09-24T00:19:23.378Z,7.00
2022-09-24T00:20:26.106Z,7.35
2022-09-24T00:21:29.866Z,6.75
2022-09-24T00:22:33.492Z,7.47
2022-09-24T00:23:35.020Z,7.30
2022-09-24T00:24:55.127Z,7.35
2022-09-24T00:26:15.823Z,8.45
2022-09-24T00:27:18.300Z,7.60
2022-09-24T00:28:19.852Z,6.88
2022-09-24T00:29:24.830Z,7.47
2022-09-24T00:30:26.361Z,7.28
2022-09-24T00:31:28.939Z,7.53
2022-09-24T00:32:30.468Z,7.13
2022-09-24T00:33:34.284Z,7.38
2022-09-24T00:34:35.844Z,7.50
2022-09-24T00:35:39.961Z,7.82
2022-09-24T00:36:41.522Z,6.88
2022-09-24T00:37:44.500Z,7.25
2022-09-24T00:38:49.330Z,7.57
2022-09-24T00:39:51.822Z,7.15
2022-09-24T00:40:53.940Z,7.82
2022-09-24T00:41:57.868Z,8.15
2022-09-24T00:42:59.728Z,7.30
2022-09-24T00:44:03.431Z,7.15
2022-09-24T00:45:05.711Z,7.20
2022-09-24T00:46:12.869Z,7.13
2022-09-24T00:47:19.274Z,7.40
2022-09-24T00:48:21.831Z,8.02
2022-09-24T00:49:24.214Z,7.53
2022-09-24T00:50:31.237Z,7.28
2022-09-24T00:51:33.144Z,7.40
2022-09-24T00:52:36.863Z,7.57
2022-09-24T00:53:39.454Z,7.35
2022-09-24T00:54:43.074Z,8.13
2022-09-24T00:55:47.385Z,7.07
2022-09-24T00:56:50.281Z,7.93
2022-09-24T00:57:57.363Z,7.63
2022-09-24T00:59:02.355Z,7.00
2022-09-24T01:00:06.981Z,7.10
2022-09-24T01:01:08.820Z,7.35
2022-09-24T01:02:12.639Z,7.43
2022-09-24T01:03:17.637Z,7.60
2022-09-24T01:04:21.455Z,7.78
2022-09-24T01:05:23.031Z,6.97
2022-09-24T01:06:26.186Z,7.88
2022-09-24T01:07:27.729Z,7.25
2022-09-24T01:08:30.227Z,7.57
2022-09-24T01:09:31.778Z,8.30
2022-09-24T01:10:51.635Z,7.65
2022-09-24T01:12:01.336Z,7.72
2022-09-24T01:13:14.845Z,8.38
2022-09-24T01:14:37.745Z,7.20
2022-09-24T01:15:43.491Z,7.97
2022-09-24T01:16:49.674Z,8.00
2022-09-24T01:17:57.763Z,6.82
2022-09-24T01:19:05.767Z,6.93
2022-09-24T01:20:38.010Z,7.15
2022-09-24T01:21:42.844Z,7.03
2022-09-24T01:23:04.289Z,7.22
2022-09-24T01:24:26.044Z,7.40
2022-09-24T01:25:33.570Z,7.80
2022-09-24T01:26:47.961Z,7.70
2022-09-24T01:28:04.772Z,7.53
2022-09-24T01:29:24.624Z,8.23
2022-09-24T01:30:32.158Z,7.28
2022-09-24T01:31:36.414Z,7.53
2022-09-24T01:32:42.221Z,8.15
2022-09-24T01:33:46.098Z,8.60
2022-09-24T01:34:50.864Z,8.70
2022-09-24T01:35:55.212Z,8.00
2022-09-24T01:36:58.837Z,8.25
2022-09-24T01:38:02.530Z,8.35
2022-09-24T01:39:06.421Z,8.27
2022-09-24T01:40:11.303Z,8.88
2022-09-24T01:41:16.021Z,8.80
2022-09-24T01:42:18.193Z,8.43
2022-09-24T01:43:24.387Z,8.07
2022-09-24T01:44:27.390Z,8.77
2022-09-24T01:45:32.058Z,8.82
2022-09-24T01:46:33.821Z,8.80
2022-09-24T01:47:39.814Z,9.07
2022-09-24T01:48:41.607Z,10.73
2022-09-24T01:49:44.233Z,9.65
2022-09-24T01:50:53.416Z,9.82
2022-09-24T01:52:01.061Z,10.30
2022-09-24T01:53:07.087Z,10.82
2022-09-24T01:54:12.280Z,10.63
2022-09-24T01:55:17.195Z,10.00
2022-09-24T01:56:22.487Z,11.18
2022-09-24T01:57:26.936Z,10.55
2022-09-24T01:58:33.725Z,10.68
2022-09-24T01:59:40.834Z,11.60
2022-09-24T02:00:45.317Z,11.73
2022-09-24T02:01:50.263Z,11.70
2022-09-24T02:02:56.512Z,11.48
2022-09-24T02:04:00.387Z,11.30
2022-09-24T02:05:07.556Z,11.85
2022-09-24T02:06:12.620Z,11.98
2022-09-24T02:07:19.187Z,11.40
2022-09-24T02:08:22.894Z,12.85
2022-09-24T02:09:32.942Z,12.32
2022-09-24T02:10:38.502Z,13.23
2022-09-24T02:11:41.706Z,11.88
2022-09-24T02:12:45.737Z,12.77
2022-09-24T02:13:51.600Z,13.00
2022-09-24T02:14:58.601Z,12.30
2022-09-24T02:16:03.507Z,12.88
2022-09-24T02:17:06.952Z,12.27
2022-09-24T02:18:11.255Z,13.20
2022-09-24T02:19:15.272Z,12.88
2022-09-24T02:20:20.401Z,13.00
2022-09-24T02:21:24.019Z,12.73
2022-09-24T02:22:27.055Z,13.13
2022-09-24T02:23:29.345Z,12.80
2022-09-24T02:24:35.871Z,13.23
2022-09-24T02:25:40.652Z,13.07
2022-09-24T02:26:43.587Z,12.93
2022-09-24T02:27:45.188Z,13.65
2022-09-24T02:28:47.695Z,14.40
2022-09-24T02:29:49.240Z,12.30
2022-09-24T02:30:55.262Z,13.23
2022-09-24T02:31:58.078Z,13.52
2022-09-24T02:33:00.948Z,13.07
2022-09-24T02:34:20.728Z,13.60
2022-09-24T02:35:22.619Z,13.43
2022-09-24T02:36:25.264Z,12.43
2022-09-24T02:37:26.816Z,13.18
2022-09-24T02:38:29.328Z,13.48
2022-09-24T02:39:30.846Z,12.45
2022-09-24T02:40:34.193Z,13.65
2022-09-24T02:41:35.935Z,13.30
2022-09-24T02:42:41.027Z,13.73
2022-09-24T02:43:42.588Z,15.10
2022-09-24T02:44:45.123Z,14.90
2022-09-24T02:45:46.630Z,13.10
2022-09-24T02:46:50.805Z,14.30
2022-09-24T02:47:52.669Z,13.40
2022-09-24T02:48:55.184Z,13.98
2022-09-24T02:49:56.697Z,15.15
2022-09-24T02:50:59.600Z,14.43
2022-09-24T02:52:01.746Z,14.93
2022-09-24T02:53:04.295Z,15.10
2022-09-24T02:54:06.471Z,15.98
2022-09-24T02:55:09.281Z,16.75
2022-09-24T02:56:13.715Z,15.10
2022-09-24T02:57:16.252Z,15.52
2022-09-24T02:58:17.776Z,13.80
2022-09-24T02:59:20.291Z,15.18
2022-09-24T03:00:21.833Z,14.68
2022-09-24T03:01:24.737Z,16.08
2022-09-24T03:02:27.765Z,15.32
2022-09-24T03:03:30.353Z,15.07
2022-09-24T03:04:31.927Z,15.85
2022-09-24T03:05:34.867Z,15.43
2022-09-24T03:06:36.954Z,16.15
2022-09-24T03:07:39.429Z,16.00
2022-09-24T03:08:42.290Z,15.93
2022-09-24T03:09:44.764Z,15.38
2022-09-24T03:10:46.670Z,16.38
2022-09-24T03:11:50.086Z,16.30
2022-09-24T03:12:51.613Z,16.40
2022-09-24T03:13:54.118Z,14.77
2022-09-24T03:14:55.642Z,15.52
2022-09-24T03:15:58.175Z,14.77
2022-09-24T03:17:00.077Z,15.27
2022-09-24T03:18:04.137Z,16.10
2022-09-24T03:19:06.223Z,15.35
2022-09-24T03:20:09.268Z,15.40
2022-09-24T03:21:12.450Z,15.57
2022-09-24T03:22:14.947Z,15.63
2022-09-24T03:23:16.502Z,16.13
2022-09-24T03:24:19.027Z,16.50
2022-09-24T03:25:21.086Z,16.40
2022-09-24T03:26:23.630Z,16.90
2022-09-24T03:27:25.230Z,16.13
2022-09-24T03:28:28.024Z,16.48
2022-09-24T03:29:48.095Z,16.38
2022-09-24T03:31:01.979Z,16.92
2022-09-24T03:32:04.635Z,15.57
2022-09-24T03:33:07.660Z,17.27
2022-09-24T03:34:10.461Z,17.42
2022-09-24T03:35:12.056Z,16.85
2022-09-24T03:36:17.200Z,16.40
2022-09-24T03:37:18.716Z,15.93
2022-09-24T03:38:21.235Z,17.05
2022-09-24T03:39:22.771Z,15.90
2022-09-24T03:40:25.484Z,15.82
2022-09-24T03:41:28.841Z,16.48
2022-09-24T03:42:30.833Z,17.25
2022-09-24T03:43:33.529Z,17.42
2022-09-24T03:44:35.069Z,16.33
2022-09-24T03:45:38.565Z,16.75
2022-09-24T03:46:41.143Z,16.65
2022-09-24T03:47:42.768Z,16.42
2022-09-24T03:48:47.222Z,16.58
2022-09-24T03:49:48.831Z,17.45
2022-09-24T03:50:51.898Z,16.42
2022-09-24T03:51:54.466Z,17.63
2022-09-24T03:52:56.038Z,17.00
2022-09-24T03:53:58.521Z,17.98
2022-09-24T03:55:00.078Z,17.65
2022-09-24T03:56:03.243Z,18.85
2022-09-24T03:57:04.749Z,18.13
2022-09-24T03:58:07.234Z,17.15
2022-09-24T03:59:10.355Z,17.45
2022-09-24T04:00:13.443Z,16.60
2022-09-24T04:01:21.107Z,17.73
2022-09-24T04:02:23.060Z,17.13
2022-09-24T04:03:26.072Z,18.98
2022-09-24T04:04:29.013Z,17.83
2022-09-24T04:05:31.501Z,20.20
2022-09-24T04:06:33.072Z,18.60
2022-09-24T04:07:35.568Z,17.75
2022-09-24T04:08:37.076Z,18.63
2022-09-24T04:09:39.694Z,17.35
2022-09-24T04:10:41.195Z,18.85
2022-09-24T04:11:44.722Z,19.30
2022-09-24T04:12:46.264Z,18.73
2022-09-24T04:13:48.759Z,19.92
2022-09-24T04:14:50.297Z,19.98
2022-09-24T04:15:53.565Z,19.38
2022-09-24T04:16:55.208Z,19.27
2022-09-24T04:17:59.441Z,20.17
2022-09-24T04:19:01.908Z,18.20
2022-09-24T04:20:06.639Z,19.17
2022-09-24T04:21:08.169Z,18.65
2022-09-24T04:22:11.018Z,19.25
2022-09-24T04:23:12.913Z,18.67
2022-09-24T04:24:15.458Z,19.23
2022-09-24T04:25:17.640Z,20.85
2022-09-24T04:26:21.060Z,19.17
2022-09-24T04:27:22.583Z,21.50
2022-09-24T04:28:25.189Z,21.05
2022-09-24T04:29:26.688Z,20.38
2022-09-24T04:30:30.305Z,19.50
2022-09-24T04:31:32.796Z,20.52
2022-09-24T04:32:35.432Z,19.23
2022-09-24T04:33:36.963Z,18.73
2022-09-24T04:34:39.458Z,20.27
2022-09-24T04:35:42.618Z,20.08
2022-09-24T04:36:45.164Z,19.73
2022-09-24T04:37:47.019Z,19.88
2022-09-24T04:38:50.198Z,20.58
2022-09-24T04:39:51.744Z,20.13
2022-09-24T04:40:54.330Z,18.02
2022-09-24T04:41:55.918Z,19.20
2022-09-24T04:42:58.424Z,20.70
2022-09-24T04:43:59.961Z,19.27
2022-09-24T04:45:02.985Z,21.20
2022-09-24T04:46:05.627Z,21.15
2022-09-24T04:47:08.726Z,20.70
2022-09-24T04:48:11.052Z,19.05
2022-09-24T04:49:14.123Z,19.40
2022-09-24T04:50:15.712Z,20.33
2022-09-24T04:51:27.302Z,20.40
2022-09-24T04:52:31.370Z,20.80
2022-09-24T04:53:33.933Z,19.25
2022-09-24T04:54:35.484Z,18.85
2022-09-24T04:55:38.068Z,21.10
2022-09-24T04:56:39.633Z,20.17
2022-09-24T04:57:42.154Z,19.45
2022-09-24T04:58:44.561Z,19.33
2022-09-24T04:59:47.070Z,20.30
2022-09-24T05:00:51.139Z,19.48
2022-09-24T05:01:54.397Z,21.33
2022-09-24T05:02:58.974Z,19.33
2022-09-24T05:04:01.883Z,20.30
2022-09-24T05:05:03.628Z,19.80
2022-09-24T05:06:06.483Z,20.38
2022-09-24T05:07:09.982Z,20.55
2022-09-24T05:08:13.037Z,20.83
2022-09-24T05:09:14.819Z,21.45
2022-09-24T05:10:17.554Z,20.95
2022-09-24T05:11:19.886Z,21.95
2022-09-24T05:12:22.489Z,22.98
2022-09-24T05:13:24.088Z,22.98
2022-09-24T05:14:26.959Z,22.13
2022-09-24T05:15:29.456Z,22.70
2022-09-24T05:16:31.602Z,24.00
2022-09-24T05:17:34.125Z,22.42
2022-09-24T05:18:37.007Z,21.85
2022-09-24T05:19:39.513Z,23.02
2022-09-24T05:20:41.046Z,21.08
2022-09-24T05:21:43.584Z,22.15
2022-09-24T05:22:49.173Z,22.70
2022-09-24T05:23:50.706Z,23.15
2022-09-24T05:24:53.174Z,21.67
2022-09-24T05:26:13.148Z,22.50
2022-09-24T05:27:14.653Z,21.13
2022-09-24T05:28:17.174Z,21.95
2022-09-24T05:29:18.743Z,21.17
2022-09-24T05:30:23.010Z,22.40
2022-09-24T05:31:24.670Z,21.98
2022-09-24T05:32:27.253Z,21.27
2022-09-24T05:33:28.815Z,22.40
2022-09-24T05:34:31.359Z,22.23
2022-09-24T05:35:32.937Z,20.02
2022-09-24T05:36:35.570Z,21.17
2022-09-24T05:37:38.942Z,21.98
2022-09-24T05:38:42.757Z,21.65
2022-09-24T05:39:45.265Z,19.60
2022-09-24T05:40:50.354Z,21.50
2022-09-24T05:41:52.959Z,22.27
2022-09-24T05:42:59.818Z,20.98
2022-09-24T05:44:02.600Z,19.35
2022-09-24T05:45:06.329Z,21.00
2022-09-24T05:46:08.955Z,22.50
2022-09-24T05:47:10.662Z,21.88
2022-09-24T05:48:13.574Z,22.17
2022-09-24T05:49:15.327Z,22.02
2022-09-24T05:50:17.979Z,21.45
2022-09-24T05:51:19.487Z,21.17
2022-09-24T05:52:22.054Z,21.65
2022-09-24T05:53:23.807Z,20.35
2022-09-24T05:54:27.626Z,21.08
2022-09-24T05:55:32.365Z,21.50
2022-09-24T05:56:35.326Z,20.27
2022-09-24T05:57:37.232Z,20.63
2022-09-24T05:58:39.766Z,21.15
2022-09-24T05:59:41.279Z,21.55
2022-09-24T06:00:45.408Z,22.63
2022-09-24T06:01:49.133Z,21.15
2022-09-24T06:02:50.824Z,21.00
2022-09-24T06:03:53.389Z,21.13
2022-09-24T06:04:54.903Z,22.85
2022-09-24T06:05:59.579Z,20.88
2022-09-24T06:07:01.368Z,23.48
2022-09-24T06:08:04.150Z,20.98
2022-09-24T06:09:05.878Z,21.77
2022-09-24T06:10:11.174Z,20.15
2022-09-24T06:11:13.817Z,20.77
2022-09-24T06:12:17.521Z,22.25
2022-09-24T06:13:20.779Z,21.75
2022-09-24T06:14:23.283Z,21.30
2022-09-24T06:15:26.463Z,22.67
2022-09-24T06:16:29.038Z,23.25
2022-09-24T06:17:32.359Z,22.50
2022-09-24T06:18:36.191Z,21.92
2022-09-24T06:19:37.700Z,22.52
2022-09-24T06:20:40.200Z,21.75
2022-09-24T06:21:41.784Z,22.02
2022-09-24T06:22:44.275Z,22.95
2022-09-24T06:23:46.800Z,22.60
2022-09-24T06:24:48.338Z,21.67
2022-09-24T06:25:52.173Z,22.42
2022-09-24T06:26:53.696Z,23.52
2022-09-24T06:28:00.506Z,23.15
2022-09-24T06:29:08.437Z,22.13
2022-09-24T06:30:11.744Z,22.95
2022-09-24T06:31:14.508Z,22.23
2022-09-24T06:32:16.098Z,23.05
2022-09-24T06:33:20.011Z,22.98
2022-09-24T06:34:22.536Z,25.13
2022-09-24T06:35:24.068Z,23.58
2022-09-24T06:36:26.616Z,22.92
2022-09-24T06:37:28.188Z,21.98
2022-09-24T06:38:31.173Z,21.38
2022-09-24T06:39:33.699Z,23.33
2022-09-24T06:40:37.363Z,22.25
2022-09-24T06:41:42.006Z,23.90
2022-09-24T06:42:43.985Z,23.35
2022-09-24T06:43:47.025Z,23.45
2022-09-24T06:44:48.625Z,22.88
2022-09-24T06:45:51.173Z,21.98
2022-09-24T06:46:52.803Z,23.67
2022-09-24T06:47:56.059Z,23.80
2022-09-24T06:48:58.550Z,23.02
2022-09-24T06:50:00.056Z,24.13
2022-09-24T06:51:07.153Z,23.08
2022-09-24T06:52:08.757Z,24.27
2022-09-24T06:53:12.912Z,24.42
2022-09-24T06:54:14.401Z,24.02
2022-09-24T06:55:17.465Z,24.83
2022-09-24T06:56:19.986Z,25.00
2022-09-24T06:57:28.045Z,23.08
2022-09-24T06:58:31.633Z,23.33
2022-09-24T06:59:33.167Z,22.48
2022-09-24T07:00:36.743Z,23.02
2022-09-24T07:01:38.504Z,24.65
2022-09-24T07:02:41.702Z,22.77
2022-09-24T07:03:44.249Z,23.95
2022-09-24T07:04:45.794Z,23.63
2022-09-24T07:05:49.082Z,22.58
2022-09-24T07:07:09.185Z,23.05
2022-09-24T07:08:12.061Z,21.45
2022-09-24T07:09:13.560Z,19.77
2022-09-24T07:10:17.166Z,22.45
2022-09-24T07:11:18.686Z,24.33
2022-09-24T07:12:21.374Z,22.02
2022-09-24T07:13:24.506Z,22.48
2022-09-24T07:14:27.182Z,21.48
2022-09-24T07:15:28.755Z,23.27
2022-09-24T07:16:31.496Z,23.50
2022-09-24T07:17:34.094Z,22.27
2022-09-24T07:18:37.550Z,22.33
2022-09-24T07:19:39.311Z,22.27
2022-09-24T07:20:41.999Z,20.40
2022-09-24T07:21:43.544Z,22.25
2022-09-24T07:22:46.243Z,21.63
2022-09-24T07:23:47.867Z,23.48
2022-09-24T07:24:50.699Z,24.55
2022-09-24T07:25:56.699Z,22.25
2022-09-24T07:26:58.282Z,22.17
2022-09-24T07:28:04.581Z,21.45
2022-09-24T07:29:07.495Z,22.25
2022-09-24T07:30:11.352Z,22.70
2022-09-24T07:31:12.913Z,21.63
2022-09-24T07:32:16.688Z,21.88
2022-09-24T07:33:18.246Z,20.67
2022-09-24T07:34:21.061Z,21.00
2022-09-24T07:35:23.266Z,21.58
2022-09-24T07:36:25.860Z,21.45
2022-09-24T07:37:27.523Z,21.25
2022-09-24T07:38:30.045Z,20.25
2022-09-24T07:39:32.880Z,20.60
2022-09-24T07:40:35.935Z,20.52
2022-09-24T07:41:42.161Z,21.52
2022-09-24T07:42:49.389Z,22.38
2022-09-24T07:43:51.995Z,20.38
2022-09-24T07:44:56.552Z,20.42
2022-09-24T07:45:58.329Z,21.13
2022-09-24T07:47:00.902Z,22.48
2022-09-24T07:48:04.658Z,19.75
2022-09-24T07:49:07.267Z,20.45
2022-09-24T07:50:09.596Z,21.20
2022-09-24T07:51:12.471Z,19.27
2022-09-24T07:52:14.076Z,19.58
2022-09-24T07:53:16.848Z,19.88
2022-09-24T07:54:18.558Z,21.05
2022-09-24T07:55:21.373Z,22.02
2022-09-24T07:56:23.507Z,19.27
2022-09-24T07:57:27.399Z,21.67
2022-09-24T07:58:29.917Z,21.83
2022-09-24T07:59:32.508Z,22.70
2022-09-24T08:00:36.440Z,20.88
2022-09-24T08:01:38.151Z,20.63
2022-09-24T08:02:40.768Z,21.13
2022-09-24T08:03:42.349Z,19.98
2022-09-24T08:04:45.040Z,19.90
2022-09-24T08:05:46.701Z,20.35
2022-09-24T08:06:49.412Z,20.42
2022-09-24T08:07:51.602Z,19.92
2022-09-24T08:08:55.914Z,20.10
2022-09-24T08:09:58.457Z,20.50
2022-09-24T08:11:03.966Z,21.48
2022-09-24T08:12:05.886Z,20.13
2022-09-24T08:13:08.708Z,19.05
2022-09-24T08:14:11.347Z,19.23
2022-09-24T08:15:12.901Z,19.70
2022-09-24T08:16:17.324Z,20.08
2022-09-24T08:17:18.902Z,19.40
2022-09-24T08:18:21.401Z,19.92
2022-09-24T08:19:22.923Z,19.88
2022-09-24T08:20:25.472Z,17.60
2022-09-24T08:21:28.399Z,17.75
2022-09-24T08:22:31.375Z,19.92
2022-09-24T08:23:33.548Z,20.10
2022-09-24T08:24:36.048Z,20.10
2022-09-24T08:25:37.597Z,20.10
2022-09-24T08:26:40.181Z,19.27
2022-09-24T08:27:41.714Z,19.48
2022-09-24T08:28:44.304Z,21.23
2022-09-24T08:29:45.975Z,19.95
2022-09-24T08:30:48.531Z,20.23
2022-09-24T08:31:51.412Z,19.75
2022-09-24T08:32:53.898Z,21.42
2022-09-24T08:33:55.429Z,19.02
2022-09-24T08:34:58.947Z,18.40
2022-09-24T08:36:01.277Z,18.17
2022-09-24T08:37:03.948Z,19.55
2022-09-24T08:38:05.923Z,20.25
2022-09-24T08:39:08.645Z,19.60
2022-09-24T08:40:16.086Z,19.63
2022-09-24T08:41:28.694Z,20.73
2022-09-24T08:42:36.261Z,20.13
2022-09-24T08:43:47.182Z,19.70
2022-09-24T08:45:08.003Z,19.23
2022-09-24T08:46:33.421Z,19.98
2022-09-24T08:47:38.464Z,19.60
2022-09-24T08:48:43.246Z,20.38
2022-09-24T08:49:47.197Z,20.95
2022-09-24T08:50:52.275Z,20.25
2022-09-24T08:51:59.390Z,19.90
2022-09-24T08:53:12.636Z,19.77
2022-09-24T08:54:14.774Z,19.35
2022-09-24T08:55:21.441Z,19.10
2022-09-24T08:56:27.198Z,20.98
2022-09-24T08:57:28.896Z,19.52
2022-09-24T08:58:43.513Z,19.38
2022-09-24T08:59:50.079Z,20.77
2022-09-24T09:00:55.573Z,18.55
2022-09-24T09:02:06.857Z,18.98
2022-09-24T09:03:15.655Z,19.80
2022-09-24T09:04:26.942Z,19.27
2022-09-24T09:05:47.242Z,18.27
2022-09-24T09:07:04.618Z,18.75
2022-09-24T09:08:33.863Z,19.60
2022-09-24T09:09:42.450Z,17.92
2022-09-24T09:10:44.085Z,18.10
2022-09-24T09:11:49.237Z,18.20
2022-09-24T09:12:55.453Z,18.65
2022-09-24T09:14:00.405Z,18.80
2022-09-24T09:15:04.981Z,17.77
2022-09-24T09:16:14.803Z,17.23
2022-09-24T09:17:33.675Z,17.27
2022-09-24T09:18:39.637Z,17.30
2022-09-24T09:19:43.635Z,17.92
2022-09-24T09:20:47.220Z,17.20
2022-09-24T09:21:53.679Z,17.23
2022-09-24T09:22:56.934Z,16.38
2022-09-24T09:24:00.863Z,17.25
2022-09-24T09:25:05.626Z,16.88
2022-09-24T09:26:10.360Z,16.58
2022-09-24T09:27:15.246Z,16.38
2022-09-24T09:28:17.505Z,16.20
2022-09-24T09:29:20.351Z,15.38
2022-09-24T09:30:22.116Z,16.23
2022-09-24T09:31:32.092Z,16.60
2022-09-24T09:32:41.196Z,15.30
2022-09-24T09:33:56.767Z,15.93
2022-09-24T09:35:03.917Z,15.38
2022-09-24T09:36:16.633Z,15.48
2022-09-24T09:37:28.543Z,16.48
2022-09-24T09:38:35.957Z,16.42
2022-09-24T09:39:44.282Z,15.52
2022-09-24T09:40:54.075Z,14.48
2022-09-24T09:42:01.532Z,14.38
2022-09-24T09:43:12.132Z,15.70
2022-09-24T09:44:16.181Z,15.57
2022-09-24T09:45:28.359Z,15.70
2022-09-24T09:46:33.250Z,14.95
2022-09-24T09:47:41.745Z,15.27
2022-09-24T09:48:47.964Z,14.15
2022-09-24T09:49:53.359Z,14.52
2022-09-24T09:51:00.285Z,13.88
2022-09-24T09:52:05.882Z,12.23
2022-09-24T09:53:19.442Z,13.98
2022-09-24T09:54:21.517Z,12.50
2022-09-24T09:55:26.645Z,13.15
2022-09-24T09:56:31.718Z,11.85
2022-09-24T09:57:35.441Z,12.35
2022-09-24T09:58:38.968Z,12.77
2022-09-24T09:59:40.585Z,13.02
2022-09-24T10:00:46.919Z,12.57
2022-09-24T10:01:50.340Z,13.93
2022-09-24T10:02:53.643Z,11.85
2022-09-24T10:04:03.121Z,13.65
2022-09-24T10:05:07.404Z,13.52
2022-09-24T10:06:09.004Z,12.63
2022-09-24T10:07:13.279Z,13.20
2022-09-24T10:08:22.109Z,13.10
2022-09-24T10:09:23.710Z,13.80
2022-09-24T10:10:27.708Z,13.30
2022-09-24T10:11:29.230Z,13.75
2022-09-24T10:12:32.018Z,13.52
2022-09-24T10:13:33.807Z,12.93
2022-09-24T10:14:36.620Z,13.63
2022-09-24T10:15:45.555Z,13.77
2022-09-24T10:16:51.189Z,14.32
2022-09-24T10:17:55.304Z,13.35
2022-09-24T10:18:58.201Z,14.25
2022-09-24T10:20:02.421Z,14.35
2022-09-24T10:21:08.335Z,14.45
2022-09-24T10:22:12.620Z,13.23
2022-09-24T10:23:19.300Z,13.38
2022-09-24T10:24:26.298Z,14.05
2022-09-24T10:25:30.062Z,13.02
2022-09-24T10:26:38.744Z,13.80
2022-09-24T10:27:45.006Z,13.63
2022-09-24T10:29:05.525Z,13.80
2022-09-24T10:30:32.443Z,12.68
2022-09-24T10:31:36.447Z,11.68
2022-09-24T10:32:39.972Z,13.13
2022-09-24T10:33:43.953Z,12.13
2022-09-24T10:34:56.501Z,11.10
2022-09-24T10:36:05.964Z,10.65
2022-09-24T10:37:14.881Z,10.20
2022-09-24T10:38:19.007Z,10.25
2022-09-24T10:39:21.894Z,10.68
2022-09-24T10:40:28.167Z,10.55
2022-09-24T10:41:31.926Z,9.80
2022-09-24T10:42:33.546Z,9.48
2022-09-24T10:43:36.250Z,9.25
2022-09-24T10:44:38.360Z,8.73
2022-09-24T10:45:57.132Z,8.52
2022-09-24T10:47:16.154Z,7.72
2022-09-24T10:48:24.401Z,8.30
2022-09-24T10:49:38.713Z,8.25
2022-09-24T10:50:45.275Z,8.05
2022-09-24T10:51:51.685Z,8.10
2022-09-24T10:52:55.453Z,7.88
2022-09-24T10:54:07.065Z,7.65
2022-09-24T10:55:19.116Z,8.38
2022-09-24T10:56:27.267Z,8.95
2022-09-24T10:57:32.726Z,8.00
2022-09-24T10:58:43.141Z,7.75
2022-09-24T10:59:52.637Z,8.93
2022-09-24T11:01:03.284Z,7.95
2022-09-24T11:02:28.848Z,8.07
2022-09-24T11:03:46.420Z,9.07
2022-09-24T11:04:51.892Z,7.70
2022-09-24T11:06:02.086Z,8.18
2022-09-24T11:07:39.972Z,7.93
2022-09-24T11:08:54.877Z,8.23
2022-09-24T11:09:59.807Z,7.85
2022-09-24T11:11:11.324Z,8.13
2022-09-24T11:12:20.407Z,7.63
2022-09-24T11:13:29.165Z,7.72
2022-09-24T11:14:41.006Z,7.80
2022-09-24T11:16:10.629Z,7.63
2022-09-24T11:17:29.987Z,7.78
2022-09-24T11:18:39.100Z,9.25
2022-09-24T11:19:53.785Z,7.90
2022-09-24T11:21:04.429Z,7.35
2022-09-24T11:22:13.235Z,7.78
2022-09-24T11:23:31.735Z,8.48
2022-09-24T11:24:53.449Z,8.18
2022-09-24T11:26:00.856Z,7.80
2022-09-24T11:27:14.378Z,6.80
2022-09-24T11:28:36.400Z,8.13
2022-09-24T11:29:47.258Z,7.82
2022-09-24T11:30:58.789Z,7.60
2022-09-24T11:32:08.480Z,7.78
2022-09-24T11:33:25.599Z,8.13
2022-09-24T11:34:43.097Z,8.30
2022-09-24T11:35:56.467Z,7.18
2022-09-24T11:37:12.585Z,7.55
2022-09-24T11:38:17.976Z,8.45
2022-09-24T11:39:31.205Z,7.18
2022-09-24T11:40:46.697Z,7.78
2022-09-24T11:41:57.578Z,7.78
2022-09-24T11:43:12.452Z,7.68
2022-09-24T11:44:41.146Z,7.22
2022-09-24T11:45:51.076Z,7.28
2022-09-24T11:47:04.325Z,7.88
2022-09-24T11:48:21.060Z,7.78
2022-09-24T11:49:32.809Z,7.80
2022-09-24T11:50:47.391Z,7.90
2022-09-24T11:51:56.936Z,7.32
2022-09-24T11:53:03.187Z,7.60
2022-09-24T11:54:10.068Z,7.90
2022-09-24T11:55:16.034Z,7.15
2022-09-24T11:56:21.932Z,8.07
2022-09-24T11:57:28.284Z,8.27
2022-09-24T11:58:33.151Z,8.32
2022-09-24T11:59:38.527Z,8.00
2022-09-24T12:00:43.975Z,7.47
2022-09-24T12:01:49.509Z,8.07
2022-09-24T12:02:53.644Z,7.32
2022-09-24T12:03:58.677Z,7.93
2022-09-24T12:05:05.468Z,7.03
2022-09-24T12:06:12.201Z,7.20
2022-09-24T12:07:15.403Z,7.70
2022-09-24T12:08:21.975Z,6.88
2022-09-24T12:09:27.833Z,7.15
2022-09-24T12:10:34.977Z,6.53
2022-09-24T12:11:39.699Z,6.85
2022-09-24T12:12:43.947Z,6.85
2022-09-24T12:13:49.317Z,7.45
2022-09-24T12:14:54.653Z,6.47
2022-09-24T12:15:58.928Z,7.05
2022-09-24T12:17:05.693Z,7.32
2022-09-24T12:18:10.151Z,8.20
2022-09-24T12:19:18.916Z,7.78
2022-09-24T12:20:22.429Z,7.22
2022-09-24T12:21:28.065Z,7.32
2022-09-24T12:22:31.193Z,7.38
2022-09-24T12:23:39.062Z,7.60
2022-09-24T12:24:43.924Z,7.70
2022-09-24T12:25:47.484Z,7.22
2022-09-24T12:26:49.590Z,7.60
2022-09-24T12:27:52.319Z,6.97
2022-09-24T12:29:18.228Z,6.72
2022-09-24T12:30:46.813Z,7.75
2022-09-24T12:32:12.667Z,7.78
2022-09-24T12:33:19.613Z,7.85
2022-09-24T12:34:27.238Z,7.40
2022-09-24T12:35:39.959Z,7.85
2022-09-24T12:36:57.056Z,7.63
2022-09-24T12:38:03.073Z,7.10
2022-09-24T12:39:09.605Z,6.90
2022-09-24T12:40:26.524Z,7.85
2022-09-24T12:41:31.085Z,7.97
2022-09-24T12:42:36.938Z,8.43
2022-09-24T12:43:43.075Z,7.05
2022-09-24T12:44:47.677Z,7.13
2022-09-24T12:45:55.076Z,6.80
2022-09-24T12:46:59.163Z,7.55
2022-09-24T12:48:02.057Z,6.82
2022-09-24T12:49:04.764Z,6.68
2022-09-24T12:50:10.300Z,7.40
2022-09-24T12:51:14.385Z,7.75
2022-09-24T12:52:18.614Z,6.55
2022-09-24T12:53:24.697Z,6.57
2022-09-24T12:54:31.493Z,7.25
2022-09-24T12:55:35.716Z,7.10
2022-09-24T12:56:37.327Z,6.72
2022-09-24T12:57:42.771Z,6.18
2022-09-24T12:58:45.266Z,6.20
2022-09-24T12:59:50.078Z,5.88
2022-09-24T13:00:53.571Z,6.32
2022-09-24T13:01:56.449Z,7.25
2022-09-24T13:02:58.672Z,7.95
2022-09-24T13:04:25.316Z,6.57
2022-09-24T13:05:29.732Z,8.00
2022-09-24T13:06:34.580Z,6.68
2022-09-24T13:07:37.434Z,6.68
2022-09-24T13:08:41.170Z,6.72
2022-09-24T13:09:44.330Z,7.30
2022-09-24T13:10:54.802Z,7.00
2022-09-24T13:12:02.049Z,7.10
2022-09-24T13:13:21.431Z,6.75
2022-09-24T13:14:27.664Z,7.22
2022-09-24T13:15:34.315Z,6.88
2022-09-24T13:16:41.124Z,7.07
2022-09-24T13:17:42.663Z,6.75
2022-09-24T13:18:52.664Z,8.48
2022-09-24T13:19:59.734Z,6.93
2022-09-24T13:21:03.541Z,7.65
2022-09-24T13:22:06.529Z,6.70
2022-09-24T13:23:14.403Z,7.25
2022-09-24T13:24:31.121Z,6.00
2022-09-24T13:25:34.111Z,6.88
2022-09-24T13:26:36.705Z,6.93
2022-09-24T13:27:41.231Z,6.85
2022-09-24T13:28:56.417Z,7.30
2022-09-24T13:30:07.361Z,7.55
2022-09-24T13:31:14.846Z,6.55
2022-09-24T13:32:20.607Z,7.63
2022-09-24T13:33:24.867Z,7.57
2022-09-24T13:34:28.757Z,6.82
2022-09-24T13:35:33.690Z,7.53
2022-09-24T13:36:39.537Z,7.43
2022-09-24T13:37:43.601Z,6.95
2022-09-24T13:38:50.092Z,6.78
2022-09-24T13:39:56.913Z,7.28
2022-09-24T13:41:04.508Z,7.55
2022-09-24T13:42:09.592Z,6.15
2022-09-24T13:43:14.751Z,6.65
2022-09-24T13:44:21.476Z,6.78
2022-09-24T13:45:24.204Z,6.30
2022-09-24T13:46:27.583Z,7.18
2022-09-24T13:47:31.741Z,6.40
2022-09-24T13:48:37.615Z,5.90
2022-09-24T13:49:41.565Z,6.55
2022-09-24T13:50:47.567Z,6.38
2022-09-24T13:51:58.814Z,5.95
2022-09-24T13:53:06.345Z,7.03
2022-09-24T13:54:13.184Z,6.20
2022-09-24T13:55:19.007Z,6.88
2022-09-24T13:56:22.648Z,6.05
2022-09-24T13:57:27.023Z,7.22
2022-09-24T13:58:29.698Z,6.05
2022-09-24T13:59:32.272Z,6.43
2022-09-24T14:00:38.365Z,6.90
2022-09-24T14:01:42.040Z,6.80
2022-09-24T14:02:46.217Z,5.82
2022-09-24T14:03:59.956Z,6.20
2022-09-24T14:05:01.876Z,6.90
2022-09-24T14:06:11.809Z,6.38
2022-09-24T14:07:13.361Z,5.30
2022-09-24T14:08:16.964Z,6.18
2022-09-24T14:09:31.636Z,6.47
2022-09-24T14:10:33.748Z,6.20